createdAt,value
2017-11-05T00:00:17.521Z,8.34
2017-11-05T00:01:17.122Z,8.42
2017-11-05T00:02:17.044Z,8.41
2017-11-05T00:03:17.730Z,8.34
2017-11-05T00:04:16.882Z,8.42
2017-11-05T00:05:16.804Z,8.33
2017-11-05T00:06:16.720Z,8.28
2017-11-05T00:07:16.642Z,8.33
2017-11-05T00:08:16.561Z,8.36
2017-11-05T00:09:16.480Z,8.33
2017-11-05T00:10:16.398Z,8.24
2017-11-05T00:11:16.320Z,8.23
2017-11-05T00:12:16.374Z,8.33
2017-11-05T00:13:16.160Z,8.27
2017-11-05T00:14:16.075Z,8.31
2017-11-05T00:15:15.996Z,8.31
2017-11-05T00:16:15.914Z,8.28
2017-11-05T00:17:15.839Z,8.24
2017-11-05T00:18:15.759Z,8.27
2017-11-05T00:19:15.673Z,8.28
2017-11-05T00:20:15.592Z,8.19
2017-11-05T00:21:15.519Z,8.26
2017-11-05T00:22:15.432Z,8.16
2017-11-05T00:23:15.393Z,8.13
2017-11-05T00:24:17.772Z,8.26
2017-11-05T00:25:15.189Z,8.18
2017-11-05T00:26:18.684Z,8.20
2017-11-05T00:27:15.027Z,8.23
2017-11-05T00:28:14.949Z,8.24
2017-11-05T00:29:14.867Z,8.20
2017-11-05T00:30:14.790Z,8.24
2017-11-05T00:31:14.786Z,8.27
2017-11-05T00:32:14.673Z,8.23
2017-11-05T00:33:14.545Z,8.13
2017-11-05T00:34:14.463Z,8.19
2017-11-05T00:35:14.470Z,8.18
2017-11-05T00:36:14.303Z,8.12
2017-11-05T00:37:14.222Z,8.18
2017-11-05T00:38:14.141Z,8.20
2017-11-05T00:39:14.062Z,8.05
2017-11-05T00:40:13.979Z,8.16
2017-11-05T00:41:13.899Z,8.20
2017-11-05T00:42:13.821Z,8.19
2017-11-05T00:43:14.017Z,8.12
2017-11-05T00:44:13.734Z,8.16
2017-11-05T00:45:13.637Z,8.08
2017-11-05T00:46:13.761Z,8.12
2017-11-05T00:47:13.556Z,8.05
2017-11-05T00:48:13.744Z,8.10
2017-11-05T00:49:13.361Z,8.12
2017-11-05T00:50:13.241Z,8.05
2017-11-05T00:51:13.092Z,8.08
2017-11-05T00:52:13.283Z,8.09
2017-11-05T00:53:16.330Z,8.10
2017-11-05T00:54:12.980Z,8.06
2017-11-05T00:55:12.776Z,8.06
2017-11-05T00:56:12.797Z,8.08
2017-11-05T00:57:12.629Z,8.05
2017-11-05T00:58:12.547Z,8.03
2017-11-05T00:59:13.314Z,8.05
2017-11-05T01:00:12.366Z,8.00
2017-11-05T01:01:12.427Z,8.05
2017-11-05T01:02:12.206Z,7.97
2017-11-05T01:03:12.136Z,7.97
2017-11-05T01:04:12.197Z,8.05
2017-11-05T01:05:12.008Z,7.94
2017-11-05T01:06:11.931Z,7.95
2017-11-05T01:07:11.934Z,7.95
2017-11-05T01:08:11.825Z,8.03
2017-11-05T01:09:11.768Z,8.01
2017-11-05T01:10:11.653Z,7.98
2017-11-05T01:11:11.644Z,7.98
2017-11-05T01:12:11.403Z,7.98
2017-11-05T01:13:11.499Z,7.98
2017-11-05T01:14:11.768Z,8.00
2017-11-05T01:15:11.219Z,7.98
2017-11-05T01:16:11.382Z,7.94
2017-11-05T01:17:11.051Z,8.00
2017-11-05T01:18:10.922Z,7.97
2017-11-05T01:19:10.901Z,7.91
2017-11-05T01:20:10.934Z,7.91
2017-11-05T01:21:10.676Z,7.85
2017-11-05T01:22:10.709Z,7.83
2017-11-05T01:23:10.606Z,7.82
2017-11-05T01:24:10.444Z,7.85
2017-11-05T01:25:10.673Z,7.77
2017-11-05T01:26:10.401Z,7.77
2017-11-05T01:27:10.199Z,7.82
2017-11-05T01:28:10.103Z,7.80
2017-11-05T01:29:10.112Z,7.79
2017-11-05T01:30:09.982Z,7.82
2017-11-05T01:31:09.991Z,7.82
2017-11-05T01:32:09.788Z,7.82
2017-11-05T01:33:10.112Z,7.82
2017-11-05T01:34:09.919Z,7.82
2017-11-05T01:35:09.559Z,7.75
2017-11-05T01:36:09.462Z,7.82
2017-11-05T01:37:09.486Z,7.82
2017-11-05T01:38:09.366Z,7.82
2017-11-05T01:39:09.220Z,7.83
2017-11-05T01:40:09.232Z,7.75
2017-11-05T01:41:09.084Z,7.66
2017-11-05T01:42:09.208Z,7.66
2017-11-05T01:43:09.074Z,7.70
2017-11-05T01:44:09.156Z,7.82
2017-11-05T01:45:08.802Z,7.76
2017-11-05T01:46:09.555Z,7.70
2017-11-05T01:47:08.563Z,7.75
2017-11-05T01:48:08.725Z,7.73
2017-11-05T01:49:08.610Z,7.72
2017-11-05T01:50:08.709Z,7.72
2017-11-05T01:51:08.329Z,7.72
2017-11-05T01:52:09.073Z,7.75
2017-11-05T01:53:09.365Z,7.73
2017-11-05T01:54:08.061Z,7.70
2017-11-05T01:55:07.918Z,7.72
2017-11-05T01:56:07.885Z,7.73
2017-11-05T01:57:07.808Z,7.66
2017-11-05T01:58:09.606Z,7.70
2017-11-05T01:59:09.300Z,7.72
2017-11-05T02:00:07.610Z,7.75
2017-11-05T02:01:08.207Z,7.75
2017-11-05T02:02:07.911Z,7.73
2017-11-05T02:03:07.952Z,7.72
2017-11-05T02:04:07.300Z,7.57
2017-11-05T02:05:09.798Z,7.69
2017-11-05T02:06:08.346Z,7.72
2017-11-05T02:07:08.369Z,7.69
2017-11-05T02:08:06.958Z,7.56
2017-11-05T02:09:06.813Z,7.72
2017-11-05T02:10:07.954Z,7.67
2017-11-05T02:11:07.286Z,7.53
2017-11-05T02:12:06.615Z,7.54
2017-11-05T02:13:06.690Z,7.63
2017-11-05T02:14:06.764Z,7.69
2017-11-05T02:15:07.571Z,7.56
2017-11-05T02:16:06.646Z,7.56
2017-11-05T02:17:06.515Z,7.58
2017-11-05T02:18:06.086Z,7.60
2017-11-05T02:19:10.301Z,7.60
2017-11-05T02:20:06.564Z,7.66
2017-11-05T02:21:06.718Z,7.60
2017-11-05T02:22:06.020Z,7.60
2017-11-05T02:23:06.092Z,7.60
2017-11-05T02:24:08.469Z,7.56
2017-11-05T02:25:07.073Z,7.58
2017-11-05T02:26:05.917Z,7.57
2017-11-05T02:27:06.043Z,7.67
2017-11-05T02:28:06.062Z,7.70
2017-11-05T02:29:05.926Z,7.67
2017-11-05T02:30:05.234Z,7.69
2017-11-05T02:31:05.955Z,7.66
2017-11-05T02:32:05.452Z,7.53
2017-11-05T02:33:05.071Z,7.70
2017-11-05T02:34:06.304Z,7.76
2017-11-05T02:35:07.606Z,7.66
2017-11-05T02:36:06.525Z,7.76
2017-11-05T02:37:04.567Z,7.75
2017-11-05T02:38:05.649Z,7.67
2017-11-05T02:39:05.750Z,7.66
2017-11-05T02:40:04.611Z,7.70
2017-11-05T02:41:05.159Z,7.69
2017-11-05T02:42:06.057Z,7.60
2017-11-05T02:43:04.178Z,7.73
2017-11-05T02:44:06.129Z,7.67
2017-11-05T02:45:04.779Z,7.66
2017-11-05T02:46:04.807Z,7.70
2017-11-05T02:47:06.068Z,7.73
2017-11-05T02:48:04.136Z,7.58
2017-11-05T02:49:06.551Z,7.73
2017-11-05T02:50:08.448Z,7.56
2017-11-05T02:51:03.396Z,7.56
2017-11-05T02:52:04.378Z,7.70
2017-11-05T02:53:05.838Z,7.72
2017-11-05T02:54:03.268Z,7.73
2017-11-05T02:55:04.567Z,7.56
2017-11-05T02:56:04.830Z,7.72
2017-11-05T02:57:03.299Z,7.72
2017-11-05T02:58:03.200Z,7.69
2017-11-05T03:00:06.291Z,7.79
2017-11-05T03:01:10.996Z,7.67
2017-11-05T03:02:06.989Z,7.76
2017-11-05T03:03:03.398Z,7.69
2017-11-05T03:04:07.423Z,7.72
2017-11-05T03:05:14.464Z,7.72
2017-11-05T03:06:23.226Z,7.77
2017-11-05T03:07:10.658Z,7.72
2017-11-05T03:09:04.493Z,7.69
2017-11-05T03:10:03.774Z,7.66
2017-11-05T03:11:05.865Z,7.75
2017-11-05T03:12:22.742Z,7.73
2017-11-05T03:13:03.533Z,7.77
2017-11-05T03:14:03.962Z,7.72
2017-11-05T03:15:03.529Z,7.69
2017-11-05T03:16:07.979Z,7.75
2017-11-05T03:17:09.475Z,7.73
2017-11-05T03:18:22.252Z,7.73
2017-11-05T03:19:03.689Z,7.76
2017-11-05T03:20:08.192Z,7.72
2017-11-05T03:21:04.715Z,7.75
2017-11-05T03:22:17.563Z,7.72
2017-11-05T03:23:05.721Z,7.72
2017-11-05T03:24:21.767Z,7.69
2017-11-05T03:25:02.167Z,7.73
2017-11-05T03:26:04.523Z,7.69
2017-11-05T03:27:07.210Z,7.67
2017-11-05T03:28:04.195Z,7.70
2017-11-05T03:29:03.024Z,7.80
2017-11-05T03:30:21.281Z,7.82
2017-11-05T03:31:02.443Z,7.82
2017-11-05T03:32:06.871Z,7.76
2017-11-05T03:33:07.476Z,7.80
2017-11-05T03:34:04.937Z,7.76
2017-11-05T03:34:59.893Z,7.75
2017-11-05T03:36:20.793Z,7.82
2017-11-05T03:37:00.869Z,7.76
2017-11-05T03:37:59.963Z,7.73
2017-11-05T03:39:01.874Z,7.82
2017-11-05T03:40:00.136Z,7.72
2017-11-05T03:40:59.406Z,7.77
2017-11-05T03:42:20.302Z,7.77
2017-11-05T03:42:59.247Z,7.76
2017-11-05T03:43:59.163Z,7.83
2017-11-05T03:44:59.587Z,7.82
2017-11-05T03:45:58.997Z,7.76
2017-11-05T03:47:00.139Z,7.80
2017-11-05T03:48:19.817Z,7.77
2017-11-05T03:48:59.808Z,7.83
2017-11-05T03:50:05.263Z,7.72
2017-11-05T03:51:00.331Z,7.75
2017-11-05T03:51:59.065Z,7.82
2017-11-05T03:53:00.265Z,7.79
2017-11-05T03:54:20.096Z,7.82
2017-11-05T03:55:01.898Z,7.79
2017-11-05T03:56:02.056Z,7.82
2017-11-05T03:56:59.138Z,7.79
2017-11-05T03:58:05.120Z,7.79
2017-11-05T03:58:59.567Z,7.85
2017-11-05T04:00:18.849Z,7.82
2017-11-05T04:00:57.884Z,7.80
2017-11-05T04:02:00.090Z,7.82
2017-11-05T04:02:58.624Z,7.76
2017-11-05T04:03:58.272Z,7.87
2017-11-05T04:04:58.472Z,7.83
2017-11-05T04:06:18.374Z,7.79
2017-11-05T04:06:57.294Z,7.76
2017-11-05T04:07:59.442Z,7.83
2017-11-05T04:08:57.803Z,7.82
2017-11-05T04:09:57.713Z,7.83
2017-11-05T04:10:57.406Z,7.79
2017-11-05T04:12:17.888Z,7.82
2017-11-05T04:12:58.268Z,7.83
2017-11-05T04:14:00.474Z,7.83
2017-11-05T04:14:56.646Z,7.79
2017-11-05T04:15:57.755Z,7.82
2017-11-05T04:16:56.881Z,7.79
2017-11-05T04:18:17.381Z,7.91
2017-11-05T04:18:57.760Z,7.83
2017-11-05T04:19:56.240Z,7.83
2017-11-05T04:20:56.165Z,7.94
2017-11-05T04:21:56.088Z,7.85
2017-11-05T04:22:55.996Z,7.82
2017-11-05T04:24:16.902Z,7.83
2017-11-05T04:24:55.839Z,7.88
2017-11-05T04:25:55.759Z,7.90
2017-11-05T04:26:55.683Z,7.88
2017-11-05T04:27:55.598Z,8.01
2017-11-05T04:28:59.301Z,7.93
2017-11-05T04:30:16.414Z,7.98
2017-11-05T04:30:55.360Z,8.05
2017-11-05T04:31:55.271Z,7.90
2017-11-05T04:32:55.190Z,8.01
2017-11-05T04:33:55.107Z,7.98
2017-11-05T04:34:55.029Z,7.91
2017-11-05T04:36:15.927Z,7.93
2017-11-05T04:36:54.868Z,7.91
2017-11-05T04:37:54.785Z,8.03
2017-11-05T04:38:54.705Z,7.98
2017-11-05T04:39:54.624Z,7.97
2017-11-05T04:40:54.546Z,7.97
2017-11-05T04:42:15.442Z,7.93
2017-11-05T04:42:54.381Z,7.97
2017-11-05T04:43:54.297Z,7.97
2017-11-05T04:44:54.230Z,7.93
2017-11-05T04:45:54.135Z,7.93
2017-11-05T04:46:54.060Z,7.94
2017-11-05T04:48:14.958Z,7.97
2017-11-05T04:48:53.901Z,7.93
2017-11-05T04:49:53.814Z,7.91
2017-11-05T04:50:53.736Z,7.94
2017-11-05T04:51:53.652Z,7.98
2017-11-05T04:52:53.580Z,7.95
2017-11-05T04:54:14.477Z,7.93
2017-11-05T04:54:53.411Z,7.90
2017-11-05T04:55:53.331Z,7.97
2017-11-05T04:56:53.248Z,7.95
2017-11-05T04:57:53.167Z,7.94
2017-11-05T04:58:53.090Z,7.93
2017-11-05T05:00:15.356Z,7.93
2017-11-05T05:00:52.926Z,7.91
2017-11-05T05:01:52.843Z,7.95
2017-11-05T05:02:52.764Z,8.00
2017-11-05T05:03:52.687Z,7.91
2017-11-05T05:04:52.607Z,7.95
2017-11-05T05:06:14.372Z,7.95
2017-11-05T05:06:52.443Z,7.93
2017-11-05T05:07:52.357Z,7.94
2017-11-05T05:08:52.280Z,7.93
2017-11-05T05:09:52.201Z,7.93
2017-11-05T05:10:53.514Z,7.93
2017-11-05T05:12:13.971Z,7.95
2017-11-05T05:12:51.954Z,7.94
2017-11-05T05:13:51.871Z,7.90
2017-11-05T05:14:51.796Z,7.87
2017-11-05T05:15:51.712Z,7.95
2017-11-05T05:16:51.633Z,7.98
2017-11-05T05:18:14.031Z,7.93
2017-11-05T05:18:51.473Z,7.85
2017-11-05T05:19:51.394Z,7.85
2017-11-05T05:20:51.830Z,7.94
2017-11-05T05:21:51.230Z,7.83
2017-11-05T05:22:51.439Z,7.79
2017-11-05T05:24:12.619Z,7.82
2017-11-05T05:24:50.986Z,7.93
2017-11-05T05:25:50.902Z,7.82
2017-11-05T05:26:50.826Z,7.79
2017-11-05T05:27:50.748Z,7.93
2017-11-05T05:28:50.664Z,7.82
2017-11-05T05:30:15.836Z,7.85
2017-11-05T05:30:50.498Z,7.83
2017-11-05T05:31:50.423Z,7.77
2017-11-05T05:32:50.337Z,7.91
2017-11-05T05:33:50.253Z,7.83
2017-11-05T05:34:50.173Z,7.82
2017-11-05T05:36:12.287Z,7.80
2017-11-05T05:36:50.011Z,7.82
2017-11-05T05:37:49.932Z,7.82
2017-11-05T05:38:49.854Z,7.79
2017-11-05T05:39:49.770Z,7.82
2017-11-05T05:40:49.693Z,7.82
2017-11-05T05:42:11.101Z,7.80
2017-11-05T05:42:49.526Z,7.82
2017-11-05T05:43:49.445Z,7.82
2017-11-05T05:44:49.369Z,7.82
2017-11-05T05:45:49.287Z,7.82
2017-11-05T05:46:49.205Z,7.82
2017-11-05T05:48:12.218Z,7.82
2017-11-05T05:48:49.048Z,7.82
2017-11-05T05:49:49.486Z,7.82
2017-11-05T05:50:49.261Z,7.83
2017-11-05T05:51:49.355Z,7.82
2017-11-05T05:52:50.043Z,7.77
2017-11-05T05:54:12.722Z,7.75
2017-11-05T05:54:48.945Z,7.79
2017-11-05T05:55:49.028Z,7.88
2017-11-05T05:56:49.574Z,7.72
2017-11-05T05:57:48.701Z,7.77
2017-11-05T05:58:48.628Z,7.72
2017-11-05T06:00:11.035Z,7.75
2017-11-05T06:00:48.072Z,7.76
2017-11-05T06:01:48.553Z,7.69
2017-11-05T06:02:48.458Z,7.70
2017-11-05T06:03:48.211Z,7.73
2017-11-05T06:04:47.745Z,7.69
2017-11-05T06:06:12.541Z,7.80
2017-11-05T06:06:47.972Z,7.67
2017-11-05T06:07:48.792Z,7.67
2017-11-05T06:08:47.424Z,7.76
2017-11-05T06:09:47.343Z,7.67
2017-11-05T06:10:49.525Z,7.82
2017-11-05T06:12:08.957Z,7.80
2017-11-05T06:12:47.432Z,7.67
2017-11-05T06:13:47.594Z,7.76
2017-11-05T06:14:47.323Z,7.75
2017-11-05T06:15:47.919Z,7.80
2017-11-05T06:16:47.322Z,7.80
2017-11-05T06:18:09.216Z,7.67
2017-11-05T06:18:46.892Z,7.77
2017-11-05T06:19:46.901Z,7.80
2017-11-05T06:20:47.009Z,7.69
2017-11-05T06:21:46.928Z,7.79
2017-11-05T06:22:46.677Z,7.69
2017-11-05T06:24:09.285Z,7.82
2017-11-05T06:24:47.235Z,7.67
2017-11-05T06:25:46.441Z,7.75
2017-11-05T06:26:46.517Z,7.80
2017-11-05T06:27:46.264Z,7.76
2017-11-05T06:28:46.183Z,7.82
2017-11-05T06:30:10.666Z,7.82
2017-11-05T06:30:46.202Z,7.87
2017-11-05T06:31:45.940Z,7.82
2017-11-05T06:32:46.032Z,7.80
2017-11-05T06:33:45.778Z,7.82
2017-11-05T06:34:45.707Z,7.79
2017-11-05T06:36:09.144Z,7.79
2017-11-05T06:36:45.715Z,7.83
2017-11-05T06:37:47.012Z,7.88
2017-11-05T06:38:45.551Z,7.83
2017-11-05T06:39:45.299Z,7.87
2017-11-05T06:40:45.125Z,7.90
2017-11-05T06:42:07.182Z,7.80
2017-11-05T06:42:45.050Z,7.91
2017-11-05T06:43:45.565Z,7.94
2017-11-05T06:44:45.549Z,7.94
2017-11-05T06:45:47.444Z,8.00
2017-11-05T06:46:44.737Z,8.05
2017-11-05T06:48:07.222Z,8.09
2017-11-05T06:48:44.605Z,8.15
2017-11-05T06:49:44.493Z,8.10
2017-11-05T06:50:44.588Z,8.12
2017-11-05T06:51:44.490Z,8.16
2017-11-05T06:52:44.425Z,8.12
2017-11-05T06:54:08.331Z,8.20
2017-11-05T06:54:44.266Z,8.23
2017-11-05T06:55:44.601Z,8.19
2017-11-05T06:56:44.519Z,8.23
2017-11-05T06:57:45.188Z,8.34
2017-11-05T06:58:45.552Z,8.34
2017-11-05T07:00:06.019Z,8.28
2017-11-05T07:00:44.053Z,8.30
2017-11-05T07:01:43.859Z,8.33
2017-11-05T07:02:43.444Z,8.33
2017-11-05T07:03:43.669Z,8.37
2017-11-05T07:04:44.041Z,8.44
2017-11-05T07:06:07.491Z,8.42
2017-11-05T07:06:43.358Z,8.48
2017-11-05T07:07:43.873Z,8.51
2017-11-05T07:08:43.214Z,8.52
2017-11-05T07:09:43.696Z,8.63
2017-11-05T07:10:43.788Z,8.55
2017-11-05T07:12:06.915Z,8.66
2017-11-05T07:12:43.521Z,8.60
2017-11-05T07:13:43.549Z,8.58
2017-11-05T07:14:45.615Z,8.58
2017-11-05T07:15:43.115Z,8.67
2017-11-05T07:16:43.699Z,8.71
2017-11-05T07:18:03.845Z,8.73
2017-11-05T07:18:42.376Z,8.73
2017-11-05T07:19:46.874Z,8.69
2017-11-05T07:20:43.717Z,8.74
2017-11-05T07:21:46.904Z,8.76
2017-11-05T07:22:41.680Z,8.73
2017-11-05T07:24:05.386Z,8.71
2017-11-05T07:24:42.781Z,8.81
2017-11-05T07:25:43.199Z,8.76
2017-11-05T07:26:42.606Z,8.82
2017-11-05T07:27:41.416Z,8.76
2017-11-05T07:28:41.916Z,8.79
2017-11-05T07:30:10.220Z,8.76
2017-11-05T07:30:41.125Z,8.81
2017-11-05T07:31:41.345Z,8.89
2017-11-05T07:32:41.614Z,8.88
2017-11-05T07:33:42.034Z,8.95
2017-11-05T07:34:41.236Z,8.92
2017-11-05T07:36:07.146Z,8.89
2017-11-05T07:36:41.179Z,8.89
2017-11-05T07:37:40.958Z,8.92
2017-11-05T07:38:40.611Z,8.92
2017-11-05T07:39:40.649Z,8.97
2017-11-05T07:40:40.650Z,9.00
2017-11-05T07:42:02.629Z,9.10
2017-11-05T07:42:40.629Z,9.04
2017-11-05T07:43:40.828Z,9.10
2017-11-05T07:44:40.341Z,9.08
2017-11-05T07:45:41.644Z,8.99
2017-11-05T07:46:40.232Z,9.11
2017-11-05T07:48:03.410Z,9.10
2017-11-05T07:48:40.230Z,9.06
2017-11-05T07:49:40.544Z,9.08
2017-11-05T07:50:40.992Z,9.21
2017-11-05T07:51:40.470Z,9.13
2017-11-05T07:52:39.848Z,9.10
2017-11-05T07:54:07.343Z,9.11
2017-11-05T07:54:40.167Z,9.11
2017-11-05T07:55:39.032Z,9.19
2017-11-05T07:56:39.704Z,9.19
2017-11-05T07:57:39.970Z,9.16
2017-11-05T07:58:40.820Z,9.19
2017-11-05T08:00:00.039Z,9.23
2017-11-05T08:00:40.826Z,9.23
2017-11-05T08:01:41.345Z,9.29
2017-11-05T08:02:38.653Z,9.28
2017-11-05T08:03:40.586Z,9.28
2017-11-05T08:04:40.641Z,9.31
2017-11-05T08:05:59.453Z,9.31
2017-11-05T08:06:45.033Z,9.37
2017-11-05T08:07:38.549Z,9.40
2017-11-05T08:08:39.131Z,9.37
2017-11-05T08:09:41.289Z,9.41
2017-11-05T08:10:38.379Z,9.36
2017-11-05T08:11:59.006Z,9.41
2017-11-05T08:12:38.173Z,9.37
2017-11-05T08:13:43.835Z,9.39
2017-11-05T08:14:37.794Z,9.39
2017-11-05T08:15:42.984Z,9.39
2017-11-05T08:16:38.541Z,9.44
2017-11-05T08:17:59.840Z,9.34
2017-11-05T08:18:42.402Z,9.36
2017-11-05T08:19:40.836Z,9.43
2017-11-05T08:20:38.485Z,9.32
2017-11-05T08:21:38.327Z,9.40
2017-11-05T08:22:38.727Z,9.43
2017-11-05T08:23:59.361Z,9.36
2017-11-05T08:24:38.269Z,9.36
2017-11-05T08:25:37.483Z,9.43
2017-11-05T08:26:38.299Z,9.37
2017-11-05T08:27:40.527Z,9.40
2017-11-05T08:28:39.844Z,9.39
2017-11-05T08:29:57.081Z,9.39
2017-11-05T08:30:39.547Z,9.44
2017-11-05T08:32:01.457Z,9.39
2017-11-05T08:32:38.043Z,9.44
2017-11-05T08:33:39.027Z,9.46
2017-11-05T08:34:40.237Z,9.50
2017-11-05T08:35:56.938Z,9.51
2017-11-05T08:36:38.367Z,9.66
2017-11-05T08:37:38.533Z,9.69
2017-11-05T08:38:38.471Z,9.61
2017-11-05T08:39:37.215Z,9.62
2017-11-05T08:40:39.005Z,9.74
2017-11-05T08:41:56.706Z,9.73
2017-11-05T08:42:38.052Z,9.80
2017-11-05T08:43:39.655Z,9.83
2017-11-05T08:44:45.679Z,9.94
2017-11-05T08:45:38.444Z,9.95
2017-11-05T08:46:39.055Z,10.01
2017-11-05T08:47:55.649Z,10.10
2017-11-05T08:48:38.380Z,10.04
2017-11-05T08:49:38.069Z,10.09
2017-11-05T08:50:47.322Z,10.19
2017-11-05T08:51:48.217Z,10.20
2017-11-05T08:52:38.975Z,10.26
2017-11-05T08:53:55.166Z,10.30
2017-11-05T08:54:38.426Z,10.33
2017-11-05T08:55:40.847Z,10.31
2017-11-05T08:56:37.885Z,10.44
2017-11-05T08:57:34.955Z,10.44
2017-11-05T08:58:39.385Z,10.46
2017-11-05T08:59:54.700Z,10.49
2017-11-05T09:00:51.378Z,10.59
2017-11-05T09:01:39.460Z,10.53
2017-11-05T09:02:34.137Z,10.61
2017-11-05T09:03:35.585Z,10.60
2017-11-05T09:04:35.486Z,10.61
2017-11-05T09:05:54.226Z,10.67
2017-11-05T09:06:46.616Z,10.63
2017-11-05T09:07:37.135Z,10.63
2017-11-05T09:08:40.749Z,10.63
2017-11-05T09:09:47.668Z,10.67
2017-11-05T09:10:49.309Z,10.75
2017-11-05T09:11:53.748Z,10.71
2017-11-05T09:12:39.055Z,10.71
2017-11-05T09:13:50.511Z,10.74
2017-11-05T09:14:33.753Z,10.89
2017-11-05T09:15:36.620Z,10.82
2017-11-05T09:16:38.496Z,10.87
2017-11-05T09:17:53.277Z,10.90
2017-11-05T09:18:34.071Z,10.87
2017-11-05T09:19:35.892Z,10.87
2017-11-05T09:20:37.865Z,10.96
2017-11-05T09:21:36.022Z,10.99
2017-11-05T09:22:41.381Z,10.89
2017-11-05T09:23:52.815Z,10.97
2017-11-05T09:24:35.655Z,10.96
2017-11-05T09:25:42.465Z,11.00
2017-11-05T09:26:42.849Z,10.99
2017-11-05T09:27:41.723Z,10.97
2017-11-05T09:29:02.340Z,11.04
2017-11-05T09:29:52.338Z,11.08
2017-11-05T09:30:40.540Z,11.07
2017-11-05T09:31:32.329Z,11.04
2017-11-05T09:32:34.239Z,11.02
2017-11-05T09:33:38.829Z,11.08
2017-11-05T09:34:39.563Z,11.07
2017-11-05T09:35:51.869Z,11.12
2017-11-05T09:36:37.563Z,11.22
2017-11-05T09:37:50.878Z,11.22
2017-11-05T09:38:41.899Z,11.22
2017-11-05T09:39:50.699Z,11.17
2017-11-05T09:40:38.352Z,11.18
2017-11-05T09:41:51.401Z,11.30
2017-11-05T09:42:36.964Z,11.19
2017-11-05T09:43:38.936Z,11.32
2017-11-05T09:44:32.227Z,11.22
2017-11-05T09:45:30.988Z,11.27
2017-11-05T09:46:30.358Z,11.25
2017-11-05T09:47:50.926Z,11.33
2017-11-05T09:48:36.537Z,11.33
2017-11-05T09:49:45.296Z,11.36
2017-11-05T09:50:31.747Z,11.29
2017-11-05T09:51:29.633Z,11.32
2017-11-05T09:53:02.388Z,11.36
2017-11-05T09:53:50.462Z,11.43
2017-11-05T09:54:30.443Z,11.40
2017-11-05T09:55:36.131Z,11.50
2017-11-05T09:56:32.078Z,11.52
2017-11-05T09:57:29.841Z,11.54
2017-11-05T09:58:37.068Z,11.50
2017-11-05T09:59:49.995Z,11.59
2017-11-05T10:00:31.426Z,11.60
2017-11-05T10:01:34.033Z,11.52
2017-11-05T10:02:29.698Z,11.59
2017-11-05T10:03:30.235Z,11.63
2017-11-05T10:04:29.407Z,11.59
2017-11-05T10:05:49.529Z,11.69
2017-11-05T10:06:29.423Z,11.75
2017-11-05T10:07:30.245Z,11.77
2017-11-05T10:08:28.320Z,11.84
2017-11-05T10:09:28.228Z,11.77
2017-11-05T10:10:29.459Z,11.80
2017-11-05T10:11:49.057Z,11.84
2017-11-05T10:12:29.540Z,11.95
2017-11-05T10:13:28.135Z,11.87
2017-11-05T10:14:32.834Z,11.91
2017-11-05T10:15:29.030Z,12.02
2017-11-05T10:16:28.345Z,12.03
2017-11-05T10:17:48.590Z,12.02
2017-11-05T10:18:27.953Z,12.13
2017-11-05T10:19:27.647Z,12.28
2017-11-05T10:20:30.070Z,12.32
2017-11-05T10:21:27.957Z,12.42
2017-11-05T10:22:27.630Z,12.43
2017-11-05T10:23:48.131Z,12.43
2017-11-05T10:24:28.513Z,12.40
2017-11-05T10:25:27.260Z,12.53
2017-11-05T10:26:31.815Z,12.46
2017-11-05T10:27:27.536Z,12.53
2017-11-05T10:28:27.036Z,12.55
2017-11-05T10:29:47.668Z,12.61
2017-11-05T10:30:26.608Z,12.61
2017-11-05T10:31:26.530Z,12.72
2017-11-05T10:32:26.468Z,12.65
2017-11-05T10:33:26.374Z,12.62
2017-11-05T10:34:26.303Z,12.72
2017-11-05T10:35:47.559Z,12.76
2017-11-05T10:36:28.389Z,12.67
2017-11-05T10:37:26.265Z,12.65
2017-11-05T10:38:26.195Z,12.70
2017-11-05T10:39:26.099Z,12.67
2017-11-05T10:40:26.138Z,12.58
2017-11-05T10:41:46.834Z,12.50
2017-11-05T10:42:25.890Z,12.54
2017-11-05T10:43:25.815Z,12.54
2017-11-05T10:44:28.959Z,12.57
2017-11-05T10:45:25.662Z,12.53
2017-11-05T10:46:25.613Z,12.64
2017-11-05T10:47:46.497Z,12.65
2017-11-05T10:48:25.433Z,12.65
2017-11-05T10:49:25.359Z,12.67
2017-11-05T10:50:25.259Z,12.67
2017-11-05T10:51:25.231Z,12.55
2017-11-05T10:52:24.939Z,12.65
2017-11-05T10:53:48.932Z,12.57
2017-11-05T10:54:24.964Z,12.50
2017-11-05T10:55:24.898Z,12.49
2017-11-05T10:56:24.812Z,12.49
2017-11-05T10:57:25.953Z,12.50
2017-11-05T10:58:24.669Z,12.54
2017-11-05T10:59:45.574Z,12.57
2017-11-05T11:00:24.502Z,12.49
2017-11-05T11:01:24.428Z,12.50
2017-11-05T11:02:24.371Z,12.68
2017-11-05T11:03:24.141Z,12.54
2017-11-05T11:04:24.193Z,12.65
2017-11-05T11:05:45.108Z,12.65
2017-11-05T11:06:24.057Z,12.67
2017-11-05T11:07:23.963Z,12.72
2017-11-05T11:08:23.925Z,12.65
2017-11-05T11:09:23.828Z,12.72
2017-11-05T11:10:23.747Z,12.73
2017-11-05T11:11:45.057Z,12.75
2017-11-05T11:12:23.934Z,12.76
2017-11-05T11:13:23.515Z,12.67
2017-11-05T11:14:23.439Z,12.62
2017-11-05T11:15:23.357Z,12.67
2017-11-05T11:16:23.279Z,12.60
2017-11-05T11:17:44.900Z,12.58
2017-11-05T11:18:22.930Z,12.64
2017-11-05T11:19:23.092Z,12.65
2017-11-05T11:20:25.952Z,12.70
2017-11-05T11:21:22.900Z,12.64
2017-11-05T11:22:22.798Z,12.73
2017-11-05T11:23:44.668Z,12.73
2017-11-05T11:24:22.691Z,12.79
2017-11-05T11:25:22.609Z,12.70
2017-11-05T11:26:23.761Z,12.80
2017-11-05T11:27:22.423Z,12.85
2017-11-05T11:28:22.383Z,12.78
2017-11-05T11:29:43.795Z,12.80
2017-11-05T11:30:22.209Z,12.86
2017-11-05T11:31:22.128Z,12.83
2017-11-05T11:32:22.083Z,12.87
2017-11-05T11:33:21.976Z,12.83
2017-11-05T11:34:21.917Z,12.91
2017-11-05T11:35:46.330Z,12.83
2017-11-05T11:36:21.746Z,12.91
2017-11-05T11:37:21.677Z,12.78
2017-11-05T11:38:21.570Z,12.82
2017-11-05T11:39:21.373Z,12.73
2017-11-05T11:40:21.236Z,12.72
2017-11-05T11:41:43.478Z,12.70
2017-11-05T11:42:21.086Z,12.65
2017-11-05T11:43:21.011Z,12.62
2017-11-05T11:44:20.931Z,12.61
2017-11-05T11:45:20.859Z,12.64
2017-11-05T11:46:20.782Z,12.68
2017-11-05T11:47:42.071Z,12.72
2017-11-05T11:48:20.630Z,12.64
2017-11-05T11:49:20.550Z,12.68
2017-11-05T11:50:20.472Z,12.57
2017-11-05T11:51:20.396Z,12.67
2017-11-05T11:52:20.317Z,12.57
2017-11-05T11:53:41.735Z,12.57
2017-11-05T11:54:20.172Z,12.47
2017-11-05T11:55:20.086Z,12.50
2017-11-05T11:56:20.016Z,12.45
2017-11-05T11:57:19.931Z,12.50
2017-11-05T11:58:19.863Z,12.53
2017-11-05T11:59:42.801Z,12.53
2017-11-05T12:00:19.710Z,12.50
2017-11-05T12:01:19.626Z,12.47
2017-11-05T12:02:19.548Z,12.57
2017-11-05T12:03:19.478Z,12.57
2017-11-05T12:04:19.399Z,12.49
2017-11-05T12:05:42.605Z,12.45
2017-11-05T12:06:19.243Z,12.43
2017-11-05T12:07:19.467Z,12.50
2017-11-05T12:08:19.458Z,12.43
2017-11-05T12:09:19.359Z,12.49
2017-11-05T12:10:19.290Z,12.49
2017-11-05T12:11:40.700Z,12.47
2017-11-05T12:12:19.266Z,12.39
2017-11-05T12:13:19.073Z,12.40
2017-11-05T12:14:18.976Z,12.36
2017-11-05T12:15:18.880Z,12.39
2017-11-05T12:16:18.816Z,12.40
2017-11-05T12:17:44.703Z,12.31
2017-11-05T12:18:18.675Z,12.27
2017-11-05T12:19:18.608Z,12.25
2017-11-05T12:20:18.514Z,12.04
2017-11-05T12:21:18.319Z,12.10
2017-11-05T12:22:18.662Z,12.07
2017-11-05T12:23:39.446Z,12.07
2017-11-05T12:24:18.224Z,12.09
2017-11-05T12:25:19.348Z,12.10
2017-11-05T12:26:17.762Z,11.97
2017-11-05T12:27:18.205Z,12.04
2017-11-05T12:28:18.756Z,11.95
2017-11-05T12:29:39.896Z,12.04
2017-11-05T12:30:17.921Z,12.04
2017-11-05T12:31:18.004Z,12.02
2017-11-05T12:32:17.615Z,11.97
2017-11-05T12:33:17.716Z,12.06
2017-11-05T12:34:17.396Z,11.97
2017-11-05T12:35:38.741Z,12.02
2017-11-05T12:36:17.474Z,12.02
2017-11-05T12:37:19.269Z,11.91
2017-11-05T12:38:17.331Z,12.00
2017-11-05T12:39:17.065Z,11.87
2017-11-05T12:40:17.101Z,11.97
2017-11-05T12:41:42.041Z,11.87
2017-11-05T12:42:16.528Z,11.94
2017-11-05T12:43:17.848Z,11.99
2017-11-05T12:44:16.649Z,11.87
2017-11-05T12:45:16.567Z,11.84
2017-11-05T12:46:16.528Z,11.95
2017-11-05T12:47:39.725Z,11.72
2017-11-05T12:48:16.053Z,11.81
2017-11-05T12:49:16.093Z,11.81
2017-11-05T12:50:16.218Z,11.80
2017-11-05T12:51:16.025Z,11.86
2017-11-05T12:52:15.788Z,11.70
2017-11-05T12:53:37.529Z,11.77
2017-11-05T12:54:15.660Z,11.78
2017-11-05T12:55:18.470Z,11.77
2017-11-05T12:56:15.487Z,11.66
2017-11-05T12:57:15.384Z,11.66
2017-11-05T12:58:15.284Z,11.60
2017-11-05T12:59:38.161Z,11.62
2017-11-05T13:00:15.066Z,11.62
2017-11-05T13:01:15.034Z,11.68
2017-11-05T13:02:15.035Z,11.72
2017-11-05T13:03:15.010Z,11.62
2017-11-05T13:04:14.835Z,11.60
2017-11-05T13:05:37.717Z,11.59
2017-11-05T13:06:17.826Z,11.62
2017-11-05T13:07:14.692Z,11.57
2017-11-05T13:08:14.620Z,11.45
2017-11-05T13:09:14.536Z,11.54
2017-11-05T13:10:15.789Z,11.47